Time;durP1;ratioP1;P1;durP2;ratioP2;P2;SDS_P1;SDS_P2;PMS_P1;PMS_P2;Temp;Humidity;BMP_temperature;BMP_pressure;BME280_temperature;BME280_humidity;BME280_pressure;Samples;Min_cycle;Max_cycle;Signal;HPM_P1;HPM_P2
2024/05/02 00:01:39;;;;;;;;;;;20.30;50.60;;;;;;4325034;27;20464;-84
2024/05/02 00:03:58;;;;;;;;;;;20.30;50.60;;;;;;4339023;26;19932;-83
2024/05/02 00:06:18;;;;;;;;;;;20.30;50.90;;;;;;4354320;27;19939;-80
2024/05/02 00:08:37;;;;;;;;;;;20.30;50.80;;;;;;4346920;27;19943;-82
2024/05/02 00:10:56;;;;;;;;;;;20.30;51.00;;;;;;4311998;27;20398;-82
2024/05/02 00:13:16;;;;;;;;;;;20.30;51.00;;;;;;4329095;27;19935;-82
2024/05/02 00:15:36;;;;;;;;;;;20.20;51.00;;;;;;4331376;27;19967;-82
2024/05/02 00:17:55;;;;;;;;;;;20.20;51.00;;;;;;4344965;27;19935;-84
2024/05/02 00:20:14;;;;;;;;;;;20.20;51.00;;;;;;4356888;27;20059;-82
2024/05/02 00:22:34;;;;;;;;;;;20.20;51.00;;;;;;4326108;27;19996;-84
2024/05/02 00:24:53;;;;;;;;;;;20.10;50.90;;;;;;4354258;27;19932;-85
2024/05/02 00:27:13;;;;;;;;;;;20.10;51.00;;;;;;4355826;27;19937;-83
2024/05/02 00:29:32;;;;;;;;;;;20.00;51.00;;;;;;4311999;27;19976;-82
2024/05/02 00:31:51;;;;;;;;;;;19.90;51.00;;;;;;4338209;27;20791;-85
2024/05/02 00:34:10;;;;;;;;;;;19.90;51.20;;;;;;4337718;27;19938;-82
2024/05/02 00:36:30;;;;;;;;;;;19.90;51.10;;;;;;4350766;27;19935;-81
2024/05/02 00:38:51;;;;;;;;;;;19.90;51.60;;;;;;4329424;27;19936;-82
2024/05/02 00:41:10;;;;;;;;;;;19.90;51.40;;;;;;4334848;27;19974;-82
2024/05/02 00:43:29;;;;;;;;;;;19.80;51.50;;;;;;4359891;26;19947;-85
2024/05/02 00:45:50;;;;;;;;;;;19.80;52.30;;;;;;4380427;27;19931;-84
2024/05/02 00:48:10;;;;;;;;;;;19.80;51.80;;;;;;4367073;27;20479;-82
2024/05/02 00:50:32;;;;;;;;;;;19.80;51.70;;;;;;4330902;27;19935;-85
2024/05/02 00:52:51;;;;;;;;;;;19.70;51.50;;;;;;4355741;27;20315;-83
2024/05/02 00:55:11;;;;;;;;;;;19.70;51.50;;;;;;4354666;27;19931;-83
2024/05/02 00:57:31;;;;;;;;;;;19.70;51.80;;;;;;4305005;27;20438;-82
2024/05/02 00:59:50;;;;;;;;;;;19.60;51.70;;;;;;4325873;27;19943;-83
2024/05/02 01:02:09;;;;;;;;;;;19.70;52.50;;;;;;4338209;26;20033;-83
2024/05/02 01:04:29;;;;;;;;;;;19.70;52.00;;;;;;4345485;27;20291;-82
2024/05/02 01:06:51;;;;;;;;;;;19.60;52.10;;;;;;4323504;27;19936;-83
2024/05/02 01:09:13;;;;;;;;;;;19.60;52.10;;;;;;4334570;27;19931;-82
2024/05/02 01:11:32;;;;;;;;;;;19.60;52.10;;;;;;4328358;27;20427;-80
2024/05/02 01:13:52;;;;;;;;;;;19.60;52.10;;;;;;4358277;27;20752;-83
2024/05/02 01:16:12;;;;;;;;;;;19.60;52.00;;;;;;4324584;27;19932;-81
2024/05/02 01:18:31;;;;;;;;;;;19.50;52.10;;;;;;4321594;27;20056;-83
2024/05/02 01:20:51;;;;;;;;;;;19.50;52.20;;;;;;4344038;27;19935;-81
2024/05/02 01:23:11;;;;;;;;;;;19.50;52.30;;;;;;4377921;26;20311;-81
2024/05/02 01:25:30;;;;;;;;;;;19.50;52.40;;;;;;4378784;27;20017;-83
2024/05/02 01:27:49;;;;;;;;;;;19.60;52.40;;;;;;4379393;27;19945;-81
2024/05/02 01:30:09;;;;;;;;;;;19.50;52.30;;;;;;4346855;27;20413;-82
2024/05/02 01:32:28;;;;;;;;;;;19.50;52.40;;;;;;4350795;27;19987;-85
2024/05/02 01:34:47;;;;;;;;;;;19.50;52.40;;;;;;4332694;27;19943;-79
2024/05/02 01:37:07;;;;;;;;;;;19.50;52.40;;;;;;4348947;27;20026;-82
2024/05/02 01:39:26;;;;;;;;;;;19.50;52.40;;;;;;4329755;27;20853;-83
2024/05/02 01:41:45;;;;;;;;;;;19.40;52.40;;;;;;4346874;27;19939;-84
2024/05/02 01:44:05;;;;;;;;;;;19.40;52.40;;;;;;4306774;27;19940;-82
2024/05/02 01:46:24;;;;;;;;;;;19.40;52.40;;;;;;4355405;27;19938;-84
2024/05/02 01:48:44;;;;;;;;;;;19.40;52.50;;;;;;4335405;27;19938;-83
2024/05/02 01:51:04;;;;;;;;;;;19.30;52.90;;;;;;4299352;27;19939;-82
2024/05/02 01:53:25;;;;;;;;;;;19.30;52.50;;;;;;4334230;27;19932;-82
2024/05/02 01:55:44;;;;;;;;;;;19.20;52.60;;;;;;4346306;27;20691;-85
2024/05/02 01:58:04;;;;;;;;;;;19.20;52.50;;;;;;4320750;27;20326;-84
2024/05/02 02:00:23;;;;;;;;;;;19.20;52.60;;;;;;4350819;27;19938;-83
2024/05/02 02:02:42;;;;;;;;;;;19.20;52.70;;;;;;4350696;27;19939;-85
2024/05/02 02:05:02;;;;;;;;;;;19.20;52.80;;;;;;4306805;27;19932;-84
2024/05/02 02:07:21;;;;;;;;;;;19.20;52.90;;;;;;4297124;27;19932;-84
2024/05/02 02:09:40;;;;;;;;;;;19.20;52.90;;;;;;4332149;27;19935;-84
2024/05/02 02:12:00;;;;;;;;;;;19.20;53.00;;;;;;4357584;27;19942;-82
2024/05/02 02:14:20;;;;;;;;;;;19.20;53.00;;;;;;4348829;27;19975;-81
2024/05/02 02:16:40;;;;;;;;;;;19.10;52.90;;;;;;4346304;27;19935;-82
2024/05/02 02:18:59;;;;;;;;;;;19.20;53.00;;;;;;4348253;27;19931;-84
2024/05/02 02:21:18;;;;;;;;;;;19.10;53.00;;;;;;4340949;27;19990;-83
2024/05/02 02:23:46;;;;;;;;;;;19.10;53.00;;;;;;4324180;27;19939;-82
2024/05/02 02:26:06;;;;;;;;;;;19.10;53.10;;;;;;4329103;27;19932;-82
2024/05/02 02:28:25;;;;;;;;;;;19.00;53.10;;;;;;4360901;27;19941;-83
2024/05/02 02:30:45;;;;;;;;;;;19.00;53.10;;;;;;4354043;27;20341;-84
2024/05/02 02:33:04;;;;;;;;;;;19.00;53.50;;;;;;4304055;27;19932;-83
2024/05/02 02:35:23;;;;;;;;;;;18.90;52.90;;;;;;4354163;27;19935;-84
2024/05/02 02:37:42;;;;;;;;;;;18.90;53.20;;;;;;4326910;27;19963;-84
2024/05/02 02:40:02;;;;;;;;;;;18.90;53.20;;;;;;4320397;27;20096;-82
2024/05/02 02:42:21;;;;;;;;;;;18.90;53.40;;;;;;4354916;27;19934;-83
2024/05/02 02:44:40;;;;;;;;;;;18.80;53.50;;;;;;4345839;27;19958;-82
2024/05/02 02:46:59;;;;;;;;;;;18.80;53.50;;;;;;4353039;27;19958;-83
2024/05/02 02:49:19;;;;;;;;;;;18.80;53.60;;;;;;4331982;27;19939;-83
2024/05/02 02:51:38;;;;;;;;;;;18.90;53.60;;;;;;4325749;27;19971;-85
2024/05/02 02:53:57;;;;;;;;;;;18.80;53.60;;;;;;4353107;27;19943;-83
2024/05/02 02:56:18;;;;;;;;;;;18.70;53.20;;;;;;4356291;27;19935;-84
2024/05/02 02:58:37;;;;;;;;;;;18.70;53.30;;;;;;4324644;27;19936;-83
2024/05/02 03:00:56;;;;;;;;;;;18.70;53.70;;;;;;4343573;27;20444;-83
2024/05/02 03:03:16;;;;;;;;;;;18.70;54.00;;;;;;4356724;26;20408;-84
2024/05/02 03:05:35;;;;;;;;;;;18.70;53.90;;;;;;4332248;27;20202;-82
2024/05/02 03:07:54;;;;;;;;;;;18.60;53.90;;;;;;4356720;27;19931;-82
2024/05/02 03:10:15;;;;;;;;;;;18.60;53.70;;;;;;4352433;27;19931;-83
2024/05/02 03:12:34;;;;;;;;;;;18.50;53.80;;;;;;4320680;27;19986;-83
2024/05/02 03:14:55;;;;;;;;;;;18.60;55.00;;;;;;4380361;26;19938;-84
2024/05/02 03:17:14;;;;;;;;;;;18.50;54.10;;;;;;4344000;27;19943;-83
2024/05/02 03:19:33;;;;;;;;;;;18.60;54.40;;;;;;4313781;27;20022;-84
2024/05/02 03:21:52;;;;;;;;;;;18.50;53.80;;;;;;4347503;27;19975;-82
2024/05/02 03:24:12;;;;;;;;;;;18.50;53.80;;;;;;4325422;27;20078;-82
2024/05/02 03:26:31;;;;;;;;;;;18.60;54.50;;;;;;4371289;26;20415;-82
2024/05/02 03:28:50;;;;;;;;;;;18.70;55.20;;;;;;4349905;27;19949;-82
2024/05/02 03:31:15;;;;;;;;;;;18.70;55.20;;;;;;4345966;27;19931;-82
2024/05/02 03:33:34;;;;;;;;;;;18.70;55.00;;;;;;4325860;27;20045;-83
2024/05/02 03:35:53;;;;;;;;;;;18.70;54.60;;;;;;4326386;27;19939;-83
2024/05/02 03:38:14;;;;;;;;;;;18.70;54.60;;;;;;4370746;27;19938;-83
2024/05/02 03:40:33;;;;;;;;;;;18.70;54.90;;;;;;4340551;27;19979;-83
2024/05/02 03:42:54;;;;;;;;;;;18.70;54.60;;;;;;4350607;27;19932;-85
2024/05/02 03:45:14;;;;;;;;;;;18.60;54.30;;;;;;4376120;26;19931;-84
2024/05/02 03:47:33;;;;;;;;;;;18.60;55.20;;;;;;4327755;27;19944;-84
2024/05/02 03:49:52;;;;;;;;;;;18.60;54.60;;;;;;4375320;26;20376;-84
2024/05/02 03:52:13;;;;;;;;;;;18.60;54.70;;;;;;4373584;26;19931;-83
2024/05/02 03:54:32;;;;;;;;;;;18.50;54.40;;;;;;4328833;27;20438;-84
2024/05/02 03:56:52;;;;;;;;;;;18.50;54.60;;;;;;4345570;27;19931;-83
2024/05/02 03:59:11;;;;;;;;;;;18.50;54.60;;;;;;4335292;27;20798;-83
2024/05/02 04:01:30;;;;;;;;;;;18.50;54.40;;;;;;4354391;27;19938;-84
2024/05/02 04:03:50;;;;;;;;;;;18.50;54.60;;;;;;4340902;27;19936;-85
2024/05/02 04:06:12;;;;;;;;;;;18.50;54.50;;;;;;4322625;27;19938;-86
2024/05/02 04:08:31;;;;;;;;;;;18.40;54.50;;;;;;4353660;27;19931;-82
2024/05/02 04:10:52;;;;;;;;;;;18.20;55.00;;;;;;4378311;26;20379;-83
2024/05/02 04:13:12;;;;;;;;;;;18.40;55.20;;;;;;4352351;27;19938;-82
2024/05/02 04:15:32;;;;;;;;;;;18.40;54.90;;;;;;4325066;27;20036;-81
2024/05/02 04:17:52;;;;;;;;;;;18.40;54.80;;;;;;4339838;27;20906;-81
2024/05/02 04:20:11;;;;;;;;;;;18.60;55.30;;;;;;4355349;27;19938;-83
2024/05/02 04:22:31;;;;;;;;;;;18.50;55.20;;;;;;4323136;27;19974;-81
2024/05/02 04:24:50;;;;;;;;;;;18.50;54.70;;;;;;4347690;27;20356;-83
2024/05/02 04:27:11;;;;;;;;;;;18.50;54.80;;;;;;4370604;27;19935;-81
2024/05/02 04:29:30;;;;;;;;;;;18.50;55.50;;;;;;4326507;27;19931;-80
2024/05/02 04:31:49;;;;;;;;;;;18.50;55.00;;;;;;4335709;27;19967;-81
2024/05/02 04:34:09;;;;;;;;;;;18.50;54.90;;;;;;4354217;27;19942;-83
2024/05/02 04:36:28;;;;;;;;;;;18.50;54.80;;;;;;4340684;27;20410;-81
2024/05/02 04:38:47;;;;;;;;;;;18.50;54.90;;;;;;4348731;27;19931;-83
2024/05/02 04:41:06;;;;;;;;;;;18.60;55.20;;;;;;4363359;27;19945;-81
2024/05/02 04:43:26;;;;;;;;;;;18.70;54.90;;;;;;4347695;27;19935;-82
2024/05/02 04:45:45;;;;;;;;;;;18.60;54.60;;;;;;4337920;27;20084;-79
2024/05/02 04:48:04;;;;;;;;;;;18.70;54.90;;;;;;4374301;27;19938;-82
2024/05/02 04:50:24;;;;;;;;;;;18.70;55.00;;;;;;4334768;27;19939;-81
2024/05/02 04:52:43;;;;;;;;;;;18.70;55.00;;;;;;4350302;27;19947;-83
2024/05/02 04:55:03;;;;;;;;;;;18.70;54.70;;;;;;4329711;27;19932;-82
2024/05/02 04:57:23;;;;;;;;;;;18.80;55.10;;;;;;4349954;27;20011;-82
2024/05/02 04:59:42;;;;;;;;;;;18.80;55.70;;;;;;4346507;27;19931;-83
2024/05/02 05:02:01;;;;;;;;;;;18.80;55.40;;;;;;4341654;27;19931;-83
2024/05/02 05:04:21;;;;;;;;;;;18.80;55.00;;;;;;4352543;27;19931;-80
2024/05/02 05:06:40;;;;;;;;;;;18.90;55.00;;;;;;4319311;27;19935;-82
2024/05/02 05:08:59;;;;;;;;;;;18.90;55.10;;;;;;4357955;27;19931;-82
2024/05/02 05:11:18;;;;;;;;;;;19.00;55.10;;;;;;4343267;27;20329;-81
2024/05/02 05:13:37;;;;;;;;;;;19.00;55.20;;;;;;4352939;27;20382;-82
2024/05/02 05:15:57;;;;;;;;;;;19.00;55.10;;;;;;4329546;27;20341;-82
2024/05/02 05:18:16;;;;;;;;;;;19.00;55.20;;;;;;4375931;27;20288;-84
2024/05/02 05:20:36;;;;;;;;;;;19.20;56.20;;;;;;4375780;27;19940;-81
2024/05/02 05:22:55;;;;;;;;;;;19.10;55.20;;;;;;4375251;27;19931;-81
2024/05/02 05:25:16;;;;;;;;;;;19.20;54.90;;;;;;4325816;27;19979;-83
2024/05/02 05:27:35;;;;;;;;;;;19.20;55.30;;;;;;4319663;27;19931;-82
2024/05/02 05:29:55;;;;;;;;;;;19.30;55.10;;;;;;4381463;27;20416;-82
2024/05/02 05:32:14;;;;;;;;;;;19.30;55.20;;;;;;4352104;27;19939;-80
2024/05/02 05:34:33;;;;;;;;;;;19.40;55.10;;;;;;4340234;27;19932;-81
2024/05/02 05:36:52;;;;;;;;;;;19.40;55.00;;;;;;4348603;27;19938;-81
2024/05/02 05:39:12;;;;;;;;;;;19.50;55.20;;;;;;4370793;27;20008;-83
2024/05/02 05:41:31;;;;;;;;;;;19.60;56.00;;;;;;4349076;27;19931;-84
2024/05/02 05:43:50;;;;;;;;;;;19.60;55.50;;;;;;4354867;27;19931;-82
2024/05/02 05:46:09;;;;;;;;;;;19.70;55.50;;;;;;4342502;27;19931;-83
2024/05/02 05:48:29;;;;;;;;;;;19.80;55.10;;;;;;4345532;27;19931;-83
2024/05/02 05:50:48;;;;;;;;;;;19.80;55.20;;;;;;4353293;27;19931;-83
2024/05/02 05:53:08;;;;;;;;;;;20.10;55.60;;;;;;4374049;27;20324;-82
2024/05/02 05:55:28;;;;;;;;;;;20.10;55.30;;;;;;4350298;27;19931;-81
2024/05/02 05:57:47;;;;;;;;;;;20.20;55.50;;;;;;4384547;26;19938;-82
2024/05/02 06:00:07;;;;;;;;;;;20.40;55.30;;;;;;4313146;27;19936;-80
2024/05/02 06:02:26;;;;;;;;;;;20.50;55.10;;;;;;4354347;27;20287;-82
2024/05/02 06:04:46;;;;;;;;;;;20.60;55.40;;;;;;4378503;26;19930;-82
2024/05/02 06:07:05;;;;;;;;;;;20.70;55.40;;;;;;4337726;27;20237;-81
2024/05/02 06:09:24;;;;;;;;;;;20.90;55.20;;;;;;4329819;27;19947;-81
2024/05/02 06:11:43;;;;;;;;;;;21.10;55.40;;;;;;4354377;27;19947;-82
2024/05/02 06:14:03;;;;;;;;;;;21.30;55.00;;;;;;4327049;27;20328;-83
2024/05/02 06:16:23;;;;;;;;;;;21.60;54.90;;;;;;4341089;27;20194;-82
2024/05/02 06:18:42;;;;;;;;;;;21.70;55.10;;;;;;4323164;27;20417;-79
2024/05/02 06:21:02;;;;;;;;;;;21.90;54.70;;;;;;4348416;27;19939;-81
2024/05/02 06:23:21;;;;;;;;;;;22.00;54.50;;;;;;4328443;27;19995;-82
2024/05/02 06:25:40;;;;;;;;;;;22.20;54.40;;;;;;4348362;27;19975;-81
2024/05/02 06:28:00;;;;;;;;;;;22.30;54.30;;;;;;4363337;27;19931;-83
2024/05/02 06:30:19;;;;;;;;;;;22.40;54.60;;;;;;4296224;27;19932;-83
2024/05/02 06:32:39;;;;;;;;;;;22.50;54.20;;;;;;4327013;27;19939;-82
2024/05/02 06:34:58;;;;;;;;;;;22.70;54.40;;;;;;4330997;27;19935;-82
2024/05/02 06:37:17;;;;;;;;;;;22.90;54.20;;;;;;4331576;27;20036;-82
2024/05/02 06:39:36;;;;;;;;;;;23.10;54.00;;;;;;4324575;27;19945;-82
2024/05/02 06:41:56;;;;;;;;;;;23.20;54.00;;;;;;4330763;26;19947;-82
2024/05/02 06:44:15;;;;;;;;;;;23.40;54.50;;;;;;4342238;27;20371;-81
2024/05/02 06:46:34;;;;;;;;;;;23.60;53.70;;;;;;4354382;27;19931;-80
2024/05/02 06:48:53;;;;;;;;;;;23.70;53.60;;;;;;4344687;27;20351;-81
2024/05/02 06:51:13;;;;;;;;;;;23.90;53.40;;;;;;4350097;27;19983;-82
2024/05/02 06:53:32;;;;;;;;;;;24.00;53.20;;;;;;4351521;27;19939;-84
2024/05/02 06:55:51;;;;;;;;;;;24.10;53.20;;;;;;4350608;27;19932;-82
2024/05/02 06:58:11;;;;;;;;;;;24.20;53.00;;;;;;4301488;27;19984;-82
2024/05/02 07:00:30;;;;;;;;;;;24.30;53.00;;;;;;4338517;27;19967;-83
2024/05/02 07:02:49;;;;;;;;;;;24.40;52.70;;;;;;4325813;27;20014;-83
2024/05/02 07:05:08;;;;;;;;;;;24.50;52.70;;;;;;4368028;27;19931;-82
2024/05/02 07:07:28;;;;;;;;;;;24.60;52.60;;;;;;4374290;26;19930;-79
2024/05/02 07:09:47;;;;;;;;;;;24.70;52.60;;;;;;4329116;27;20013;-80
2024/05/02 07:12:08;;;;;;;;;;;24.70;53.10;;;;;;4352655;26;20413;-81
2024/05/02 07:14:27;;;;;;;;;;;24.80;52.30;;;;;;4344539;27;20364;-81
2024/05/02 07:16:48;;;;;;;;;;;24.90;52.20;;;;;;4317484;27;20278;-82
2024/05/02 07:19:08;;;;;;;;;;;25.00;52.40;;;;;;4296714;27;19939;-82
2024/05/02 07:21:29;;;;;;;;;;;25.00;52.40;;;;;;4366067;26;19970;-81
2024/05/02 07:23:48;;;;;;;;;;;25.20;52.10;;;;;;4328149;27;20441;-82
2024/05/02 07:26:07;;;;;;;;;;;25.20;51.80;;;;;;4346414;27;20021;-84
2024/05/02 07:28:27;;;;;;;;;;;25.30;51.80;;;;;;4328743;27;20475;-82
2024/05/02 07:30:47;;;;;;;;;;;25.40;51.50;;;;;;4318970;27;19932;-80
2024/05/02 07:33:06;;;;;;;;;;;25.50;51.50;;;;;;4328640;27;19943;-82
2024/05/02 07:35:29;;;;;;;;;;;25.60;51.60;;;;;;4328447;27;19947;-82
2024/05/02 07:37:49;;;;;;;;;;;25.60;51.20;;;;;;4351289;27;20200;-81
2024/05/02 07:40:08;;;;;;;;;;;25.70;51.00;;;;;;4342699;27;20464;-81
2024/05/02 07:42:27;;;;;;;;;;;25.70;50.80;;;;;;4318484;27;19932;-82
2024/05/02 07:44:46;;;;;;;;;;;25.80;50.60;;;;;;4359333;27;19970;-81
2024/05/02 07:47:05;;;;;;;;;;;25.80;50.60;;;;;;4323990;27;20382;-85
2024/05/02 07:49:25;;;;;;;;;;;25.90;50.90;;;;;;4327850;27;19964;-83
2024/05/02 07:51:44;;;;;;;;;;;26.00;51.00;;;;;;4360596;27;20308;-83
2024/05/02 07:54:03;;;;;;;;;;;26.00;50.40;;;;;;4368903;26;20275;-82
2024/05/02 07:56:22;;;;;;;;;;;26.10;50.60;;;;;;4323505;27;19939;-82
2024/05/02 07:58:42;;;;;;;;;;;26.10;50.30;;;;;;4353244;27;19950;-82
2024/05/02 08:01:01;;;;;;;;;;;26.20;50.80;;;;;;4354820;27;19935;-82
2024/05/02 08:03:21;;;;;;;;;;;26.20;50.40;;;;;;4305308;27;19969;-82
2024/05/02 08:05:40;;;;;;;;;;;26.20;49.50;;;;;;4308936;27;20476;-83
2024/05/02 08:08:00;;;;;;;;;;;26.30;50.00;;;;;;4350619;27;20316;-81
2024/05/02 08:10:19;;;;;;;;;;;26.30;50.10;;;;;;4360210;27;19935;-83
2024/05/02 08:12:42;;;;;;;;;;;26.40;49.90;;;;;;4358308;26;20025;-84
2024/05/02 08:15:02;;;;;;;;;;;26.50;49.50;;;;;;4367380;27;19931;-82
2024/05/02 08:17:21;;;;;;;;;;;26.50;49.90;;;;;;4345747;27;20608;-85
2024/05/02 08:19:41;;;;;;;;;;;26.60;49.40;;;;;;4347605;27;19955;-84
2024/05/02 08:22:00;;;;;;;;;;;26.60;49.90;;;;;;4357415;27;20556;-85
2024/05/02 08:24:19;;;;;;;;;;;26.70;49.60;;;;;;4361215;27;20013;-82
2024/05/02 08:26:39;;;;;;;;;;;26.80;49.00;;;;;;4336901;27;19939;-82
2024/05/02 08:29:00;;;;;;;;;;;26.80;47.10;;;;;;4351353;27;19931;-84
2024/05/02 08:31:19;;;;;;;;;;;26.90;48.70;;;;;;4331185;27;19932;-84
2024/05/02 08:33:38;;;;;;;;;;;26.90;48.70;;;;;;4330905;27;19942;-81
2024/05/02 08:35:58;;;;;;;;;;;27.00;48.60;;;;;;4354286;27;20257;-83
2024/05/02 08:38:19;;;;;;;;;;;27.10;49.50;;;;;;4351441;27;20098;-85
2024/05/02 08:40:39;;;;;;;;;;;27.10;48.10;;;;;;4317855;27;19940;-85
2024/05/02 08:42:59;;;;;;;;;;;27.20;48.60;;;;;;4358246;27;19931;-80
2024/05/02 08:45:19;;;;;;;;;;;27.20;48.30;;;;;;4322964;27;19947;-82
2024/05/02 08:47:41;;;;;;;;;;;27.30;49.10;;;;;;4334572;26;20400;-81
2024/05/02 08:50:00;;;;;;;;;;;27.30;48.10;;;;;;4322303;27;19939;-83
2024/05/02 08:52:20;;;;;;;;;;;27.30;48.30;;;;;;4349039;27;19964;-84
2024/05/02 08:54:39;;;;;;;;;;;27.40;48.70;;;;;;4376460;27;19937;-83
2024/05/02 08:56:59;;;;;;;;;;;27.50;48.80;;;;;;4353362;26;19935;-82
2024/05/02 08:59:20;;;;;;;;;;;27.50;48.50;;;;;;4377570;26;22949;-85
2024/05/02 09:01:40;;;;;;;;;;;27.60;48.60;;;;;;4307191;27;19946;-81
2024/05/02 09:03:59;;;;;;;;;;;27.70;48.20;;;;;;4351556;27;19947;-81
2024/05/02 09:06:19;;;;;;;;;;;27.70;48.60;;;;;;4339825;27;19932;-84
2024/05/02 09:08:39;;;;;;;;;;;27.70;48.60;;;;;;4341243;27;20502;-82
2024/05/02 09:11:02;;;;;;;;;;;27.70;47.40;;;;;;4347171;27;19939;-83
2024/05/02 09:13:21;;;;;;;;;;;27.70;48.00;;;;;;4351073;27;19950;-86
2024/05/02 09:15:40;;;;;;;;;;;27.80;48.30;;;;;;4376945;26;20338;-83
2024/05/02 09:18:03;;;;;;;;;;;27.90;48.60;;;;;;4301979;27;19940;-85
2024/05/02 09:20:23;;;;;;;;;;;27.90;48.10;;;;;;4359263;27;19946;-85
2024/05/02 09:22:43;;;;;;;;;;;28.00;47.60;;;;;;4319439;27;19932;-83
2024/05/02 09:25:04;;;;;;;;;;;28.10;47.50;;;;;;4346795;27;19943;-84
2024/05/02 09:27:23;;;;;;;;;;;28.20;47.90;;;;;;4355057;27;20010;-84
2024/05/02 09:29:43;;;;;;;;;;;28.20;47.60;;;;;;4343270;27;19930;-83
2024/05/02 09:32:03;;;;;;;;;;;28.30;47.80;;;;;;4372167;26;20008;-83
2024/05/02 09:34:22;;;;;;;;;;;28.40;47.10;;;;;;4356106;27;19931;-84
2024/05/02 09:36:43;;;;;;;;;;;28.50;47.80;;;;;;4321940;27;19980;-83
2024/05/02 09:39:07;;;;;;;;;;;28.50;47.70;;;;;;4353737;27;20245;-82
2024/05/02 09:41:27;;;;;;;;;;;28.60;48.10;;;;;;4348342;27;19956;-84
2024/05/02 09:43:49;;;;;;;;;;;28.60;47.70;;;;;;4352944;27;20117;-85
2024/05/02 09:46:09;;;;;;;;;;;28.70;47.90;;;;;;4319386;27;19939;-84
2024/05/02 09:48:32;;;;;;;;;;;28.70;47.80;;;;;;4350653;27;19931;-83
2024/05/02 09:50:54;;;;;;;;;;;28.80;47.50;;;;;;4344283;27;19988;-87
2024/05/02 09:53:15;;;;;;;;;;;28.80;47.70;;;;;;4377266;26;19931;-84
2024/05/02 09:55:35;;;;;;;;;;;28.80;46.50;;;;;;4328494;27;19936;-83
2024/05/02 09:57:55;;;;;;;;;;;28.90;47.50;;;;;;4350034;27;19963;-85
2024/05/02 10:00:15;;;;;;;;;;;28.80;45.60;;;;;;4345743;27;19938;-86
2024/05/02 10:02:34;;;;;;;;;;;28.80;46.80;;;;;;4320251;27;19954;-85
2024/05/02 10:04:58;;;;;;;;;;;28.70;46.50;;;;;;4331140;27;19983;-82
2024/05/02 10:07:28;;;;;;;;;;;28.70;46.50;;;;;;4349217;27;19963;-82
2024/05/02 10:09:47;;;;;;;;;;;28.70;46.90;;;;;;4355416;27;20003;-83
2024/05/02 10:12:14;;;;;;;;;;;28.60;46.80;;;;;;4342432;27;20040;-85
2024/05/02 10:14:35;;;;;;;;;;;28.60;46.90;;;;;;4357672;27;20063;-85
2024/05/02 10:16:55;;;;;;;;;;;28.60;47.70;;;;;;4309411;27;19932;-85
2024/05/02 10:19:16;;;;;;;;;;;28.60;46.60;;;;;;4349428;27;19939;-85
2024/05/02 10:21:36;;;;;;;;;;;28.60;47.10;;;;;;4342851;27;20345;-84
2024/05/02 10:23:55;;;;;;;;;;;28.60;46.60;;;;;;4326985;27;20026;-84
2024/05/02 10:26:14;;;;;;;;;;;28.70;46.50;;;;;;4348071;27;19938;-84
2024/05/02 10:28:37;;;;;;;;;;;28.70;46.70;;;;;;4322803;27;19940;-84
2024/05/02 10:31:00;;;;;;;;;;;28.70;46.70;;;;;;4345030;26;20266;-86
2024/05/02 10:33:22;;;;;;;;;;;28.80;46.60;;;;;;4377246;27;19942;-84
2024/05/02 10:35:43;;;;;;;;;;;28.70;46.60;;;;;;4347388;27;19934;-83
2024/05/02 10:38:03;;;;;;;;;;;28.80;46.30;;;;;;4346386;27;19935;-85
2024/05/02 10:40:23;;;;;;;;;;;28.80;46.60;;;;;;4344204;27;19936;-84
2024/05/02 10:42:43;;;;;;;;;;;28.80;46.30;;;;;;4338339;27;20323;-86
2024/05/02 10:45:04;;;;;;;;;;;28.90;46.50;;;;;;4358049;27;19935;-84
2024/05/02 10:47:25;;;;;;;;;;;28.90;46.40;;;;;;4327053;27;19939;-86
2024/05/02 10:49:45;;;;;;;;;;;28.90;46.30;;;;;;4337253;27;20608;-84
2024/05/02 10:52:05;;;;;;;;;;;29.00;46.60;;;;;;4382960;26;20454;-83
2024/05/02 10:54:24;;;;;;;;;;;29.10;46.30;;;;;;4300913;27;19932;-86
2024/05/02 10:56:44;;;;;;;;;;;29.10;45.70;;;;;;4355287;27;20244;-85
2024/05/02 10:59:04;;;;;;;;;;;29.20;46.30;;;;;;4320743;27;19931;-86
2024/05/02 11:01:24;;;;;;;;;;;29.20;45.30;;;;;;4354878;27;19938;-85
2024/05/02 11:03:43;;;;;;;;;;;29.30;46.50;;;;;;4352502;27;20460;-84
2024/05/02 11:06:02;;;;;;;;;;;29.30;45.50;;;;;;4351209;27;20440;-84
2024/05/02 11:08:26;;;;;;;;;;;29.40;46.20;;;;;;4325445;27;19935;-85
2024/05/02 11:10:45;;;;;;;;;;;29.50;45.60;;;;;;4353844;27;19935;-83
2024/05/02 11:13:04;;;;;;;;;;;29.60;45.70;;;;;;4321632;27;19979;-86
2024/05/02 11:15:24;;;;;;;;;;;29.70;46.10;;;;;;4349355;27;19931;-84
2024/05/02 11:17:43;;;;;;;;;;;29.80;45.50;;;;;;4330545;27;19968;-85
2024/05/02 11:20:03;;;;;;;;;;;29.80;45.60;;;;;;4378340;26;20761;-82
2024/05/02 11:22:23;;;;;;;;;;;29.80;46.20;;;;;;4348680;27;19970;-84
2024/05/02 11:24:51;;;;;;;;;;;29.90;45.00;;;;;;4338674;27;19932;-85
2024/05/02 11:27:10;;;;;;;;;;;29.90;45.30;;;;;;4378436;26;20040;-85
2024/05/02 11:29:30;;;;;;;;;;;30.00;45.60;;;;;;4294504;27;19939;-87
2024/05/02 11:31:49;;;;;;;;;;;30.00;45.70;;;;;;4323661;27;19935;-84
2024/05/02 11:34:08;;;;;;;;;;;30.10;45.40;;;;;;4343768;27;20364;-85
2024/05/02 11:36:28;;;;;;;;;;;30.10;45.40;;;;;;4329557;27;20336;-84
2024/05/02 11:38:49;;;;;;;;;;;30.10;45.70;;;;;;4315049;27;20346;-88
2024/05/02 11:41:09;;;;;;;;;;;30.10;45.40;;;;;;4339991;27;19931;-87
2024/05/02 11:43:29;;;;;;;;;;;30.20;45.60;;;;;;4379359;26;19939;-85
2024/05/02 11:45:49;;;;;;;;;;;30.20;43.80;;;;;;4346756;27;19979;-86
2024/05/02 11:48:09;;;;;;;;;;;30.20;44.20;;;;;;4381646;27;19930;-82
2024/05/02 11:50:28;;;;;;;;;;;30.30;45.60;;;;;;4320807;27;19932;-85
2024/05/02 11:52:47;;;;;;;;;;;30.30;45.30;;;;;;4327327;27;19940;-83
2024/05/02 11:55:07;;;;;;;;;;;30.30;45.10;;;;;;4350616;27;19938;-83
2024/05/02 11:57:26;;;;;;;;;;;30.30;44.10;;;;;;4299156;27;20128;-85
2024/05/02 11:59:45;;;;;;;;;;;30.40;44.00;;;;;;4331349;27;20209;-84
2024/05/02 12:02:04;;;;;;;;;;;30.40;44.30;;;;;;4357628;27;20378;-85
2024/05/02 12:04:24;;;;;;;;;;;30.50;45.50;;;;;;4374610;27;19942;-82
2024/05/02 12:06:43;;;;;;;;;;;30.50;44.90;;;;;;4379315;27;20373;-87
2024/05/02 12:09:04;;;;;;;;;;;30.60;45.30;;;;;;4326356;27;21434;-86
2024/05/02 12:11:23;;;;;;;;;;;30.60;45.20;;;;;;4357338;27;19938;-85
2024/05/02 12:13:42;;;;;;;;;;;30.60;44.30;;;;;;4317842;27;19942;-84
2024/05/02 12:16:01;;;;;;;;;;;30.50;43.90;;;;;;4325719;27;19939;-83
2024/05/02 12:18:21;;;;;;;;;;;30.50;44.30;;;;;;4324589;27;19983;-83
2024/05/02 12:20:41;;;;;;;;;;;30.50;43.10;;;;;;4346228;27;20377;-86
2024/05/02 12:23:00;;;;;;;;;;;30.50;43.70;;;;;;4370434;27;20288;-86
2024/05/02 12:25:22;;;;;;;;;;;30.50;44.50;;;;;;4328359;27;20097;-85
2024/05/02 12:27:43;;;;;;;;;;;30.50;42.30;;;;;;4352827;27;19931;-88
2024/05/02 12:30:02;;;;;;;;;;;30.60;43.30;;;;;;4372297;27;19931;-84
2024/05/02 12:32:22;;;;;;;;;;;30.60;42.40;;;;;;4318497;27;19936;-84
2024/05/02 12:34:41;;;;;;;;;;;30.70;43.70;;;;;;4329366;27;19940;-84
2024/05/02 12:37:02;;;;;;;;;;;30.70;43.40;;;;;;4350281;27;20007;-85
2024/05/02 12:39:21;;;;;;;;;;;30.80;43.60;;;;;;4340411;27;19936;-83
2024/05/02 12:41:40;;;;;;;;;;;30.80;42.90;;;;;;4343068;27;20503;-82
2024/05/02 12:44:01;;;;;;;;;;;30.80;42.30;;;;;;4357125;27;19938;-88
2024/05/02 12:46:20;;;;;;;;;;;30.80;43.00;;;;;;4323109;27;19932;-86
2024/05/02 12:48:39;;;;;;;;;;;30.80;43.60;;;;;;4343637;27;19935;-87
2024/05/02 12:50:59;;;;;;;;;;;30.80;43.40;;;;;;4351386;27;19986;-83
2024/05/02 12:53:18;;;;;;;;;;;30.80;42.20;;;;;;4328077;27;19939;-85
2024/05/02 12:55:37;;;;;;;;;;;30.80;43.90;;;;;;4339062;27;19935;-84
2024/05/02 12:57:56;;;;;;;;;;;30.80;43.00;;;;;;4358739;27;20022;-86
2024/05/02 13:00:16;;;;;;;;;;;30.80;41.50;;;;;;4343762;27;19931;-85
2024/05/02 13:02:35;;;;;;;;;;;30.80;43.10;;;;;;4361269;27;20559;-87
2024/05/02 13:04:55;;;;;;;;;;;30.80;42.90;;;;;;4377034;26;19941;-89
2024/05/02 13:07:15;;;;;;;;;;;30.80;42.60;;;;;;4351281;26;20026;-84
2024/05/02 13:09:34;;;;;;;;;;;30.80;41.70;;;;;;4346589;27;20341;-85
2024/05/02 13:11:55;;;;;;;;;;;30.80;42.70;;;;;;4355218;27;20335;-87
2024/05/02 13:14:15;;;;;;;;;;;30.80;42.70;;;;;;4328452;27;20018;-87
2024/05/02 13:16:34;;;;;;;;;;;30.80;42.60;;;;;;4356715;27;20412;-88
2024/05/02 13:18:53;;;;;;;;;;;30.80;42.60;;;;;;4356517;27;19931;-85
2024/05/02 13:21:14;;;;;;;;;;;30.80;42.20;;;;;;4381553;26;20265;-84
2024/05/02 13:23:33;;;;;;;;;;;30.80;42.10;;;;;;4346606;27;20399;-84
2024/05/02 13:25:53;;;;;;;;;;;30.80;42.90;;;;;;4341944;27;20410;-89
2024/05/02 13:28:12;;;;;;;;;;;30.80;42.90;;;;;;4355235;27;19930;-88
2024/05/02 13:30:32;;;;;;;;;;;30.80;42.40;;;;;;4363589;27;19983;-85
2024/05/02 13:32:51;;;;;;;;;;;30.90;43.20;;;;;;4324185;27;20357;-84